Time;durP1;ratioP1;P1;durP2;ratioP2;P2;SDS_P1;SDS_P2;PMS_P1;PMS_P2;Temp;Humidity;BMP_temperature;BMP_pressure;BME280_temperature;BME280_humidity;BME280_pressure;Samples;Min_cycle;Max_cycle;Signal;HPM_P1;HPM_P2
2022/12/17 13:06:55;;;;;;;41.37;26.00;;;-0.30;99.90;;;;;;4969827;28;20881;-63
2022/12/17 13:09:31;;;;;;;44.20;25.10;;;-0.40;99.90;;;;;;4968231;28;20413;-62
2022/12/17 13:12:03;;;;;;;40.93;24.87;;;-0.40;99.90;;;;;;4968246;28;20556;-62
2022/12/17 13:14:46;;;;;;;44.33;26.40;;;-0.30;99.90;;;;;;4969598;28;20519;-63
2022/12/17 13:17:15;;;;;;;42.53;24.60;;;-0.30;99.90;;;;;;4972293;28;20407;-62
2022/12/17 13:20:21;;;;;;;39.30;24.90;;;-0.60;99.90;;;;;;4972961;28;20766;-63
2022/12/17 13:23:13;;;;;;;44.93;25.27;;;-0.40;99.90;;;;;;4912245;29;20455;-63
2022/12/17 13:25:39;;;;;;;50.23;26.47;;;-0.80;99.90;;;;;;4971332;28;20417;-63
2022/12/17 13:28:24;;;;;;;37.03;24.43;;;-0.50;99.90;;;;;;4972717;28;20409;-63
2022/12/17 13:31:01;;;;;;;41.57;25.73;;;-0.60;99.90;;;;;;4972104;28;20777;-62
2022/12/17 13:34:04;;;;;;;42.43;25.10;;;-0.60;99.90;;;;;;4973070;28;20420;-64
2022/12/17 13:36:39;;;;;;;39.93;25.13;;;-0.40;99.90;;;;;;4972890;28;20489;-63
2022/12/17 13:39:07;;;;;;;62.97;27.77;;;-0.40;99.90;;;;;;4972689;28;20907;-61
2022/12/17 13:41:35;;;;;;;46.07;25.33;;;-0.70;99.90;;;;;;4971912;28;20816;-62
2022/12/17 13:44:16;;;;;;;37.70;24.77;;;-0.90;99.90;;;;;;4972775;28;20433;-62
2022/12/17 13:46:46;;;;;;;39.27;24.07;;;-1.00;99.90;;;;;;4972612;28;21094;-62
2022/12/17 13:49:16;;;;;;;52.23;27.23;;;-1.00;99.90;;;;;;4972567;28;20556;-62
2022/12/17 13:51:42;;;;;;;46.13;25.63;;;-1.10;99.90;;;;;;4971952;28;20519;-63
2022/12/17 13:54:16;;;;;;;43.10;26.23;;;-1.00;99.90;;;;;;4987466;28;20441;-61
2022/12/17 13:56:43;;;;;;;45.43;25.93;;;-1.10;99.90;;;;;;4972408;28;20661;-62
2022/12/17 13:59:21;;;;;;;42.93;26.57;;;-1.20;99.90;;;;;;4972352;28;20486;-62
2022/12/17 14:01:52;;;;;;;48.00;28.77;;;-1.00;99.90;;;;;;4971785;28;20568;-61
2022/12/17 14:04:26;;;;;;;51.57;29.67;;;-1.30;99.90;;;;;;4972190;28;20465;-61
2022/12/17 14:06:54;;;;;;;48.87;27.33;;;-1.40;99.90;;;;;;4972496;28;20489;-61
2022/12/17 14:09:23;;;;;;;50.40;26.00;;;-1.50;99.90;;;;;;4972547;28;20464;-64
2022/12/17 14:14:43;;;;;;;41.87;26.07;;;-1.00;99.90;;;;;;4972504;28;20427;-62
2022/12/17 14:17:20;;;;;;;39.43;26.17;;;-1.30;99.90;;;;;;4972373;28;20412;-64
2022/12/17 14:19:51;;;;;;;43.80;25.90;;;-1.50;99.90;;;;;;4972814;28;20409;-62
2022/12/17 14:22:29;;;;;;;45.93;26.37;;;-1.10;99.90;;;;;;4972074;28;20456;-62
2022/12/17 14:24:55;;;;;;;44.10;24.23;;;-1.10;99.90;;;;;;4972504;28;20921;-60
2022/12/17 14:27:29;;;;;;;41.63;26.37;;;-0.90;99.90;;;;;;4971558;28;20440;-62
2022/12/17 14:29:55;;;;;;;40.90;26.80;;;-0.80;99.90;;;;;;4972755;28;20456;-62
2022/12/17 14:32:31;;;;;;;47.87;27.97;;;-1.10;99.90;;;;;;4971555;28;20464;-62
2022/12/17 14:34:58;;;;;;;51.80;26.70;;;-0.90;99.90;;;;;;4972408;28;20393;-63
2022/12/17 14:37:27;;;;;;;44.23;26.50;;;-0.50;99.90;;;;;;4972270;28;20409;-62
2022/12/17 14:39:59;;;;;;;42.23;24.97;;;-0.30;99.90;;;;;;4971974;28;20441;-62
2022/12/17 14:42:27;;;;;;;42.70;27.50;;;-0.50;99.90;;;;;;4970707;28;20584;-62
2022/12/17 14:45:17;;;;;;;49.20;26.03;;;-0.80;99.90;;;;;;4972074;28;20413;-62
2022/12/17 14:47:58;;;;;;;43.20;27.53;;;-1.00;99.90;;;;;;4964199;28;20421;-64
2022/12/17 14:50:35;;;;;;;47.93;27.67;;;-1.20;99.90;;;;;;4971541;28;20948;-65
2022/12/17 14:53:24;;;;;;;43.40;27.47;;;-1.60;99.90;;;;;;4971840;28;20429;-63
2022/12/17 14:55:56;;;;;;;53.87;32.07;;;-1.60;99.90;;;;;;4986452;28;20468;-64
2022/12/17 14:58:23;;;;;;;49.17;27.93;;;-1.70;99.90;;;;;;4970928;28;20915;-64
2022/12/17 15:01:05;;;;;;;40.70;27.60;;;-1.30;99.90;;;;;;4970653;28;20626;-63
2022/12/17 15:03:34;;;;;;;41.43;28.17;;;-1.50;99.90;;;;;;5023617;23;20483;-64
2022/12/17 15:06:03;;;;;;;48.90;27.90;;;-1.70;99.90;;;;;;5068235;28;20788;-65
2022/12/17 15:08:32;;;;;;;46.80;25.83;;;-1.70;99.90;;;;;;5051248;28;20402;-64
2022/12/17 15:10:58;;;;;;;44.00;25.73;;;-1.70;99.90;;;;;;5051270;28;20409;-63
2022/12/17 15:13:24;;;;;;;38.70;25.43;;;-1.70;1.00;;;;;;5058397;28;20422;-62
2022/12/17 15:15:49;;;;;;;48.57;25.90;;;-1.70;1.00;;;;;;5064748;28;20654;-63
2022/12/17 15:18:15;;;;;;;50.50;25.43;;;-1.50;99.90;;;;;;5063817;28;20167;-67
2022/12/17 15:20:41;;;;;;;45.80;25.80;;;-1.40;99.90;;;;;;5057516;28;20175;-65
2022/12/17 15:23:17;;;;;;;41.00;25.30;;;-1.30;99.90;;;;;;5060163;28;20559;-66
2022/12/17 15:25:46;;;;;;;70.37;39.40;;;-1.70;99.90;;;;;;5049543;28;20412;-65
2022/12/17 15:28:11;;;;;;;47.40;27.50;;;-1.70;99.90;;;;;;5050297;28;20467;-67
2022/12/17 15:30:38;;;;;;;42.67;26.10;;;-1.90;1.00;;;;;;5049633;28;20397;-66
2022/12/17 15:33:05;;;;;;;42.67;26.07;;;-1.90;1.00;;;;;;5050626;28;20170;-66
2022/12/17 15:35:31;;;;;;;45.27;27.10;;;-1.90;1.00;;;;;;5050486;28;20759;-64
2022/12/17 15:37:57;;;;;;;47.77;28.90;;;-1.80;1.00;;;;;;5050551;28;20420;-67
2022/12/17 15:40:23;;;;;;;60.93;29.60;;;-1.60;1.00;;;;;;5049388;28;20410;-67
2022/12/17 15:45:33;;;;;;;55.67;34.23;;;-0.80;99.90;;;;;;5050603;28;20232;-65
2022/12/17 15:47:59;;;;;;;49.93;30.47;;;-0.60;99.90;;;;;;5050233;28;21143;-63
2022/12/17 15:50:24;;;;;;;54.23;32.33;;;-0.60;99.90;;;;;;5049694;28;20635;-67
2022/12/17 15:52:50;;;;;;;48.43;30.00;;;-0.80;99.90;;;;;;5049594;28;20178;-67
2022/12/17 15:55:16;;;;;;;47.47;30.50;;;-0.70;99.90;;;;;;5050116;28;20521;-63
2022/12/17 15:57:42;;;;;;;54.40;31.03;;;-0.70;99.90;;;;;;5049282;28;20171;-66
2022/12/17 16:00:09;;;;;;;48.13;30.10;;;-0.90;99.90;;;;;;5050397;28;20178;-66
2022/12/17 16:02:35;;;;;;;48.60;31.20;;;-0.80;99.90;;;;;;5049028;28;20817;-67
2022/12/17 16:05:01;;;;;;;54.40;32.33;;;-0.90;99.90;;;;;;5050018;28;20452;-64
2022/12/17 16:07:27;;;;;;;48.10;29.67;;;-0.80;99.90;;;;;;5049726;28;20746;-66
2022/12/17 16:09:52;;;;;;;45.13;28.40;;;-0.80;99.90;;;;;;5050260;28;20166;-67
2022/12/17 16:12:18;;;;;;;45.23;28.33;;;-0.80;99.90;;;;;;5048586;28;20206;-65
2022/12/17 16:14:44;;;;;;;53.57;27.10;;;-1.00;99.90;;;;;;5049949;28;20190;-67
2022/12/17 16:17:09;;;;;;;39.80;25.40;;;-1.00;99.90;;;;;;5049685;28;20179;-65
2022/12/17 16:19:36;;;;;;;43.23;27.80;;;-1.00;99.90;;;;;;5049991;28;20171;-67
2022/12/17 16:22:02;;;;;;;42.80;25.73;;;-1.00;99.90;;;;;;5049272;28;20310;-66
2022/12/17 16:24:27;;;;;;;43.23;26.10;;;-1.10;99.90;;;;;;5050152;28;20490;-63
2022/12/17 16:26:53;;;;;;;47.37;29.37;;;-1.10;99.90;;;;;;5047980;28;20831;-63
2022/12/17 16:29:19;;;;;;;46.80;29.63;;;-1.30;99.90;;;;;;5049110;28;20221;-62
2022/12/17 16:31:45;;;;;;;48.63;28.17;;;-1.20;99.90;;;;;;5049272;28;20622;-63
2022/12/17 16:34:11;;;;;;;46.50;26.40;;;-1.30;99.90;;;;;;5050416;28;20191;-60
2022/12/17 16:36:37;;;;;;;39.50;27.23;;;-1.30;99.90;;;;;;5049553;28;20228;-66
2022/12/17 16:39:04;;;;;;;41.57;26.03;;;-1.20;99.90;;;;;;5050345;28;20488;-65
2022/12/17 16:41:30;;;;;;;40.20;25.90;;;-1.20;99.90;;;;;;5049358;28;20194;-65
2022/12/17 16:43:56;;;;;;;39.57;25.07;;;-1.20;99.90;;;;;;5050099;28;20426;-65
2022/12/17 16:46:25;;;;;;;35.33;25.30;;;-1.30;99.90;;;;;;5049776;28;20406;-60
2022/12/17 16:48:51;;;;;;;37.23;25.30;;;-1.20;99.90;;;;;;5049189;28;20164;-63
2022/12/17 16:51:19;;;;;;;40.23;23.50;;;-1.10;99.90;;;;;;5051923;28;20446;-63
2022/12/17 16:53:45;;;;;;;43.73;25.10;;;-1.10;99.90;;;;;;5054117;28;20190;-65
2022/12/17 16:56:26;;;;;;;47.90;23.90;;;-1.30;99.90;;;;;;5053733;28;20824;-65
2022/12/17 16:58:52;;;;;;;43.47;24.07;;;-1.40;99.90;;;;;;5053574;28;20960;-64
2022/12/17 17:01:24;;;;;;;39.40;25.40;;;-1.30;99.90;;;;;;5053241;28;20452;-66
2022/12/17 17:03:50;;;;;;;41.70;23.63;;;-1.20;99.90;;;;;;5058785;28;20528;-63
2022/12/17 17:06:17;;;;;;;38.83;24.37;;;-1.20;99.90;;;;;;5057038;28;20433;-63
2022/12/17 17:08:43;;;;;;;36.03;22.07;;;-1.30;99.90;;;;;;5058531;28;20206;-64
2022/12/17 17:11:20;;;;;;;44.17;24.30;;;-1.30;99.90;;;;;;5060667;28;20424;-65
2022/12/17 17:13:53;;;;;;;42.43;24.33;;;-1.30;99.90;;;;;;5058386;28;20453;-64
2022/12/17 17:16:21;;;;;;;38.23;23.53;;;-1.30;99.90;;;;;;5058686;28;20480;-67
2022/12/17 17:18:47;;;;;;;34.97;23.87;;;-1.30;99.90;;;;;;5061725;28;20409;-66
2022/12/17 17:21:18;;;;;;;37.53;23.00;;;-1.30;99.90;;;;;;5055665;28;20860;-66
2022/12/17 17:23:49;;;;;;;37.83;23.23;;;-1.30;99.90;;;;;;5057526;28;20187;-67
2022/12/17 17:26:16;;;;;;;37.10;21.63;;;-1.40;99.90;;;;;;5056774;28;20450;-65
2022/12/17 17:28:43;;;;;;;32.63;20.43;;;-1.40;99.90;;;;;;5055949;28;20401;-65
2022/12/17 17:31:11;;;;;;;37.23;21.90;;;-1.40;99.90;;;;;;5055978;28;20410;-64
2022/12/17 17:33:39;;;;;;;36.37;24.10;;;-1.50;99.90;;;;;;5057194;28;20425;-67
2022/12/17 17:36:07;;;;;;;40.53;22.67;;;-1.60;99.90;;;;;;5057583;28;20428;-67
2022/12/17 17:38:35;;;;;;;36.60;22.27;;;-1.60;99.90;;;;;;5056983;28;20527;-65
2022/12/17 17:41:00;;;;;;;34.87;22.77;;;-1.80;99.90;;;;;;5057506;28;20611;-65
2022/12/17 17:43:26;;;;;;;36.93;23.20;;;-1.80;99.90;;;;;;5055509;28;20457;-67
2022/12/17 17:45:52;;;;;;;32.93;21.80;;;-1.70;99.90;;;;;;5057524;28;20174;-67
2022/12/17 17:48:18;;;;;;;37.97;23.27;;;-1.70;99.90;;;;;;5057367;28;20878;-67
2022/12/17 17:50:57;;;;;;;43.40;24.67;;;-1.70;99.90;;;;;;5055891;28;20169;-68
2022/12/17 17:53:22;;;;;;;36.57;24.33;;;-1.70;99.90;;;;;;5055749;28;20456;-67
2022/12/17 17:55:48;;;;;;;48.17;26.63;;;-1.80;99.90;;;;;;5056682;28;20406;-66
2022/12/17 17:58:14;;;;;;;50.97;29.40;;;-1.80;99.90;;;;;;5055759;28;20167;-66
2022/12/17 18:00:39;;;;;;;43.03;27.63;;;-2.00;99.90;;;;;;5054195;28;20160;-66
2022/12/17 18:03:05;;;;;;;49.30;29.77;;;-2.20;99.90;;;;;;5053242;28;20250;-67
2022/12/17 18:05:36;;;;;;;57.77;36.40;;;-2.70;99.90;;;;;;5054164;28;20178;-62
2022/12/17 18:08:02;;;;;;;50.70;32.07;;;-2.90;99.90;;;;;;5073550;28;20166;-67
2022/12/17 18:10:28;;;;;;;66.23;37.20;;;-2.80;99.90;;;;;;5073752;28;20400;-64
2022/12/17 18:15:38;;;;;;;62.37;33.00;;;-2.90;99.90;;;;;;5077939;28;20181;-65
2022/12/17 18:18:04;;;;;;;48.93;30.07;;;-3.20;99.90;;;;;;5077620;28;20393;-62
2022/12/17 18:20:30;;;;;;;53.43;28.43;;;-3.20;99.90;;;;;;5078263;28;20198;-63
2022/12/17 18:22:55;;;;;;;49.27;29.10;;;-3.40;99.90;;;;;;5075987;28;20166;-64
2022/12/17 18:25:21;;;;;;;47.40;27.93;;;-3.50;99.90;;;;;;5076820;28;20218;-65
2022/12/17 18:27:47;;;;;;;42.70;26.30;;;-3.70;99.90;;;;;;5074338;28;20553;-67
2022/12/17 18:30:15;;;;;;;44.93;25.80;;;-3.60;99.90;;;;;;5073567;28;20271;-63
2022/12/17 18:32:40;;;;;;;39.23;25.73;;;-3.60;1.00;;;;;;5073493;28;20542;-65
2022/12/17 18:35:07;;;;;;;42.17;24.43;;;-3.30;1.00;;;;;;5073083;28;20435;-62
2022/12/17 18:37:32;;;;;;;37.20;24.87;;;-3.40;99.90;;;;;;5073771;28;20675;-63
2022/12/17 18:39:58;;;;;;;46.47;26.60;;;-3.30;99.90;;;;;;5072594;28;20448;-61
2022/12/17 18:45:08;;;;;;;55.80;25.10;;;-3.50;99.90;;;;;;5072567;28;20248;-64
2022/12/17 18:47:34;;;;;;;40.57;23.50;;;-3.80;1.00;;;;;;5073645;28;20465;-65
2022/12/17 18:49:59;;;;;;;44.27;26.47;;;-3.60;1.00;;;;;;5074297;28;20163;-61
2022/12/17 18:52:25;;;;;;;44.17;26.67;;;-3.40;99.90;;;;;;5072709;28;20178;-65
2022/12/17 18:54:51;;;;;;;41.87;25.30;;;-3.20;99.90;;;;;;5075637;28;20278;-64
2022/12/17 18:57:17;;;;;;;38.63;24.27;;;-3.30;99.90;;;;;;5070472;28;20174;-63
2022/12/17 18:59:42;;;;;;;38.33;24.93;;;-3.40;99.90;;;;;;5071164;28;20166;-64
2022/12/17 19:02:11;;;;;;;40.03;24.30;;;-3.10;99.90;;;;;;5070420;28;20212;-65
2022/12/17 19:04:36;;;;;;;47.03;25.40;;;-3.00;99.90;;;;;;5070778;28;20202;-65
2022/12/17 19:07:02;;;;;;;40.80;25.17;;;-2.80;99.90;;;;;;5071078;28;20405;-65
2022/12/17 19:09:34;;;;;;;44.37;25.00;;;-2.90;99.90;;;;;;5072323;28;20257;-65
2022/12/17 19:12:01;;;;;;;41.43;23.33;;;-3.30;99.90;;;;;;5071056;28;20177;-66
2022/12/17 19:14:27;;;;;;;38.17;25.60;;;-3.30;99.90;;;;;;5073072;28;20425;-65
2022/12/17 19:16:55;;;;;;;42.50;25.80;;;-3.10;99.90;;;;;;5072753;28;20789;-63
2022/12/17 19:19:21;;;;;;;36.70;27.20;;;-2.90;99.90;;;;;;5072517;28;20464;-63
2022/12/17 19:21:48;;;;;;;40.67;24.37;;;-2.70;99.90;;;;;;5073649;28;20539;-65
2022/12/17 19:24:17;;;;;;;43.97;26.53;;;-2.50;99.90;;;;;;5071338;28;20478;-64
2022/12/17 19:26:43;;;;;;;46.00;26.07;;;-2.50;99.90;;;;;;5071339;28;20405;-66
2022/12/17 19:29:11;;;;;;;42.80;25.43;;;-2.80;99.90;;;;;;5071651;28;20721;-67
2022/12/17 19:31:37;;;;;;;41.70;25.50;;;-3.10;99.90;;;;;;5070701;28;20439;-66
2022/12/17 19:34:05;;;;;;;45.23;28.07;;;-3.30;99.90;;;;;;5071625;28;20432;-67
2022/12/17 19:36:33;;;;;;;45.23;26.90;;;-3.10;99.90;;;;;;5071369;28;20571;-65
2022/12/17 19:39:01;;;;;;;37.93;24.17;;;-2.90;99.90;;;;;;5071299;28;20515;-66
2022/12/17 19:41:28;;;;;;;42.80;26.23;;;-3.00;99.90;;;;;;5070170;28;20448;-63
2022/12/17 19:43:57;;;;;;;53.53;27.77;;;-2.80;99.90;;;;;;5071518;28;20480;-65
2022/12/17 19:46:24;;;;;;;42.90;26.10;;;-2.90;99.90;;;;;;5072124;28;20405;-64
2022/12/17 19:48:50;;;;;;;39.60;25.53;;;-3.20;99.90;;;;;;5073411;28;20503;-62
2022/12/17 19:51:19;;;;;;;41.73;26.00;;;-3.30;99.90;;;;;;5071413;28;20783;-63
2022/12/17 19:53:45;;;;;;;40.47;25.80;;;-3.30;1.00;;;;;;5072470;28;20490;-65
2022/12/17 19:56:16;;;;;;;42.00;25.50;;;-3.10;1.00;;;;;;5072138;28;20796;-66
2022/12/17 19:58:43;;;;;;;40.80;25.63;;;-2.90;1.00;;;;;;5071892;28;20404;-63
2022/12/17 20:01:12;;;;;;;49.13;27.00;;;-2.60;99.90;;;;;;5070450;28;20467;-67
2022/12/17 20:03:39;;;;;;;40.20;27.60;;;-2.60;99.90;;;;;;5071174;28;20463;-65
2022/12/17 20:06:06;;;;;;;44.83;28.17;;;-2.80;99.90;;;;;;5067963;28;20417;-63
2022/12/17 20:08:33;;;;;;;43.73;25.90;;;-3.00;1.00;;;;;;5051723;28;20420;-63
2022/12/17 20:11:00;;;;;;;47.93;28.33;;;-2.60;99.90;;;;;;5050364;28;20782;-61
2022/12/17 20:13:26;;;;;;;48.80;30.60;;;-2.40;99.90;;;;;;5050964;28;20425;-61
2022/12/17 20:16:03;;;;;;;45.10;28.17;;;-2.50;99.90;;;;;;5052379;28;20409;-61
2022/12/17 20:18:29;;;;;;;45.50;26.33;;;-2.30;99.90;;;;;;5051567;28;20284;-62
2022/12/17 20:21:05;;;;;;;46.10;27.27;;;-2.30;99.90;;;;;;5050678;28;20449;-64
2022/12/17 20:23:31;;;;;;;37.17;25.37;;;-2.20;99.90;;;;;;5050888;28;20420;-64
2022/12/17 20:26:04;;;;;;;40.37;27.10;;;-2.20;99.90;;;;;;5053671;28;20802;-66
2022/12/17 20:28:31;;;;;;;38.20;24.67;;;-2.40;99.90;;;;;;5055611;28;20409;-69
2022/12/17 20:30:57;;;;;;;49.93;26.70;;;-2.40;99.90;;;;;;5054922;28;20437;-66
2022/12/17 20:33:22;;;;;;;55.50;28.23;;;-2.30;99.90;;;;;;5055483;28;20432;-63
2022/12/17 20:35:48;;;;;;;42.80;27.50;;;-2.30;99.90;;;;;;5054851;28;20179;-65
2022/12/17 20:38:14;;;;;;;41.87;25.73;;;-2.40;99.90;;;;;;5054945;28;20246;-65
2022/12/17 20:40:40;;;;;;;48.93;28.10;;;-2.80;99.90;;;;;;5072341;28;20273;-63
2022/12/17 20:43:07;;;;;;;45.67;29.23;;;-2.50;99.90;;;;;;5062297;28;20215;-64
2022/12/17 20:45:33;;;;;;;43.10;28.13;;;-2.50;99.90;;;;;;5069493;28;20416;-64
2022/12/17 20:47:58;;;;;;;55.57;27.87;;;-2.50;1.00;;;;;;5073769;28;20499;-65
2022/12/17 20:50:24;;;;;;;46.20;27.60;;;-2.50;1.00;;;;;;5054380;28;20405;-64
2022/12/17 20:52:50;;;;;;;46.93;29.03;;;-2.60;1.00;;;;;;5059640;28;20180;-63
2022/12/17 20:55:16;;;;;;;59.53;28.97;;;-2.50;1.00;;;;;;5067068;28;20221;-62
2022/12/17 20:57:42;;;;;;;54.17;28.73;;;-2.30;1.00;;;;;;5069829;28;20227;-63
2022/12/17 21:00:09;;;;;;;51.20;27.67;;;-2.30;1.00;;;;;;5072025;28;20186;-62
2022/12/17 21:02:35;;;;;;;64.00;31.33;;;-2.30;1.00;;;;;;5065011;28;20229;-63
2022/12/17 21:05:01;;;;;;;57.13;30.57;;;-2.20;1.00;;;;;;5073898;22;20585;-64
2022/12/17 21:07:26;;;;;;;50.07;27.00;;;-2.10;1.00;;;;;;5065061;28;20428;-64
2022/12/17 21:09:52;;;;;;;50.73;29.63;;;-2.00;1.00;;;;;;5068710;28;20447;-63
2022/12/17 21:12:18;;;;;;;59.80;30.07;;;-2.00;1.00;;;;;;5051885;28;20319;-63
2022/12/17 21:14:44;;;;;;;58.97;30.53;;;-2.00;1.00;;;;;;5050338;28;20525;-62
2022/12/17 21:17:09;;;;;;;56.03;27.93;;;-1.90;1.00;;;;;;5058598;28;20933;-62
2022/12/17 21:19:35;;;;;;;52.77;28.17;;;-2.00;1.00;;;;;;5059379;28;20202;-63
2022/12/17 21:22:01;;;;;;;48.83;25.93;;;-1.90;28.70;;;;;;5059613;28;20701;-64
2022/12/17 21:24:27;;;;;;;51.23;27.60;;;-1.90;91.60;;;;;;5059261;28;20198;-64
2022/12/17 21:26:52;;;;;;;51.10;28.97;;;-1.90;99.90;;;;;;5052062;28;20187;-63
2022/12/17 21:29:18;;;;;;;56.73;28.70;;;-1.90;99.90;;;;;;5054964;28;20196;-66
2022/12/17 21:31:49;;;;;;;48.70;27.20;;;-2.10;99.90;;;;;;5054957;28;20178;-64
2022/12/17 21:34:20;;;;;;;32.63;17.20;;;-2.10;99.90;;;;;;5055824;28;20195;-65
2022/12/17 21:36:46;;;;;;;61.33;31.57;;;-0.50;1.00;;;;;;5057435;28;20465;-64
2022/12/17 21:39:14;;;;;;;54.20;29.77;;;-0.20;99.90;;;;;;5059250;28;20432;-64
2022/12/17 21:41:41;;;;;;;54.90;29.47;;;-0.10;1.00;;;;;;5050758;28;20469;-64
2022/12/17 21:44:10;;;;;;;58.20;29.00;;;-1.10;1.00;;;;;;5053014;28;20472;-63
2022/12/17 21:46:36;;;;;;;59.33;28.77;;;-1.50;99.90;;;;;;5069154;28;20404;-62
2022/12/17 21:49:03;;;;;;;56.27;27.30;;;-1.70;1.00;;;;;;5058194;28;20526;-63
2022/12/17 21:51:30;;;;;;;50.20;25.70;;;-2.10;1.00;;;;;;5049785;28;20179;-64
2022/12/17 21:54:01;;;;;;;55.27;28.90;;;-2.50;99.90;;;;;;5050556;28;20457;-63
2022/12/17 21:56:28;;;;;;;47.03;27.13;;;-2.40;1.00;;;;;;5053894;28;20765;-63
2022/12/17 21:59:00;;;;;;;55.17;28.57;;;-2.50;99.90;;;;;;5058708;28;20541;-62
2022/12/17 22:01:31;;;;;;;52.80;26.27;;;-2.10;99.90;;;;;;5048120;28;20460;-64
2022/12/17 22:03:59;;;;;;;48.43;24.60;;;-2.20;99.90;;;;;;5055847;28;20453;-63
2022/12/17 22:06:27;;;;;;;51.67;25.37;;;-2.40;99.90;;;;;;5042088;28;20425;-63
2022/12/17 22:08:53;;;;;;;49.10;24.87;;;-2.20;99.90;;;;;;5051244;28;20430;-63
2022/12/17 22:11:22;;;;;;;48.60;25.50;;;-2.50;1.00;;;;;;5048507;28;20430;-63
2022/12/17 22:16:37;;;;;;;52.17;24.93;;;-2.50;1.00;;;;;;5050768;28;20585;-64
2022/12/17 22:19:05;;;;;;;55.90;28.10;;;-2.30;99.90;;;;;;5059153;28;20452;-62
2022/12/17 22:21:33;;;;;;;51.60;26.40;;;-2.20;1.00;;;;;;5049502;28;20461;-62
2022/12/17 22:23:59;;;;;;;46.30;23.00;;;-2.50;1.00;;;;;;5054714;28;20477;-62
2022/12/17 22:26:25;;;;;;;42.73;25.60;;;-3.00;1.00;;;;;;5061551;28;20435;-62
2022/12/17 22:28:50;;;;;;;51.53;24.37;;;-2.80;1.00;;;;;;5053362;28;21017;-62
2022/12/17 22:34:04;;;;;;;48.60;25.10;;;-2.30;1.00;;;;;;5053188;28;20213;-63
2022/12/17 22:36:31;;;;;;;44.47;22.90;;;-2.00;1.00;;;;;;5052596;28;20512;-63
2022/12/17 22:39:02;;;;;;;51.47;23.67;;;-2.50;1.00;;;;;;5058991;28;20437;-62
2022/12/17 22:44:13;;;;;;;52.00;23.23;;;-2.90;1.00;;;;;;5056716;28;20456;-62
2022/12/17 22:46:39;;;;;;;52.37;23.00;;;-2.70;99.90;;;;;;5045428;28;20426;-63
2022/12/17 22:49:05;;;;;;;46.30;25.87;;;-3.20;99.90;;;;;;5047838;28;20939;-62
2022/12/17 22:51:31;;;;;;;49.97;24.20;;;-3.40;99.90;;;;;;5052498;28;20428;-63
2022/12/17 22:54:00;;;;;;;49.30;24.67;;;-3.10;99.90;;;;;;5047830;28;20540;-63
2022/12/17 22:56:26;;;;;;;54.93;23.97;;;-3.00;1.00;;;;;;5067431;28;20189;-60
2022/12/17 22:58:52;;;;;;;50.17;23.37;;;-3.10;1.00;;;;;;5049673;28;20518;-63
2022/12/17 23:01:17;;;;;;;40.40;21.77;;;-3.20;99.90;;;;;;5047807;28;20302;-61
2022/12/17 23:03:43;;;;;;;48.50;21.43;;;-3.00;99.90;;;;;;5049893;28;20193;-65
2022/12/17 23:06:12;;;;;;;40.33;21.70;;;-3.40;1.00;;;;;;5050305;28;20484;-62
2022/12/17 23:08:38;;;;;;;51.77;21.20;;;-3.10;99.90;;;;;;5050129;28;20541;-63
2022/12/17 23:11:25;;;;;;;44.80;20.53;;;-3.20;99.90;;;;;;5049192;28;20479;-63
2022/12/17 23:13:52;;;;;;;42.83;20.47;;;-3.20;1.00;;;;;;5045637;28;20445;-63
2022/12/17 23:16:18;;;;;;;45.27;21.50;;;-2.70;69.90;;;;;;5044685;28;20453;-63
2022/12/17 23:18:45;;;;;;;45.43;22.47;;;-2.80;1.00;;;;;;5030425;28;20452;-61
2022/12/17 23:21:22;;;;;;;36.50;21.17;;;-3.00;99.90;;;;;;5041234;28;20533;-63
2022/12/17 23:23:49;;;;;;;43.37;21.60;;;-2.70;1.00;;;;;;5050082;28;20978;-62
2022/12/17 23:26:18;;;;;;;56.77;21.47;;;-2.50;1.00;;;;;;5049693;28;20389;-64
2022/12/17 23:28:44;;;;;;;52.00;21.27;;;-2.90;99.90;;;;;;5049808;28;20398;-63
2022/12/17 23:31:12;;;;;;;47.03;22.90;;;-3.60;99.90;;;;;;5049147;28;20401;-62
2022/12/17 23:33:39;;;;;;;46.97;23.90;;;-3.40;99.90;;;;;;5049498;28;20455;-63
2022/12/17 23:36:08;;;;;;;47.43;20.43;;;-2.80;1.00;;;;;;5049224;28;20523;-62
2022/12/17 23:38:34;;;;;;;40.17;20.87;;;-2.80;99.90;;;;;;5049722;28;20852;-62
2022/12/17 23:41:05;;;;;;;41.77;21.37;;;-3.20;99.90;;;;;;5048890;28;20741;-63
2022/12/17 23:43:31;;;;;;;41.87;21.97;;;-3.30;99.90;;;;;;5049216;28;20921;-62
2022/12/17 23:45:57;;;;;;;50.50;25.63;;;-3.20;1.00;;;;;;5049565;28;20586;-63
2022/12/17 23:48:23;;;;;;;51.50;21.37;;;-3.10;99.90;;;;;;5049173;28;20774;-60
2022/12/17 23:50:49;;;;;;;46.90;22.07;;;-3.10;1.00;;;;;;5048501;28;20405;-62
2022/12/17 23:53:15;;;;;;;39.73;21.50;;;-3.20;99.90;;;;;;5048836;28;20178;-60
2022/12/17 23:55:40;;;;;;;48.53;22.17;;;-3.30;1.00;;;;;;5048827;28;20178;-64
2022/12/17 23:58:06;;;;;;;52.13;22.83;;;-3.20;99.90;;;;;;5048329;28;20167;-64
